Time;durP1;ratioP1;P1;durP2;ratioP2;P2;SDS_P1;SDS_P2;PMS_P1;PMS_P2;Temp;Humidity;BMP_temperature;BMP_pressure;BME280_temperature;BME280_humidity;BME280_pressure;Samples;Min_cycle;Max_cycle;Signal;HPM_P1;HPM_P2
2024/01/04 00:00:23;;;;;;;14.18;3.03;;;;;;;5.42;100.00;99720.41;5037697;28;20044;-74
2024/01/04 00:02:49;;;;;;;18.90;3.20;;;;;;;5.44;100.00;99719.03;5045453;28;20093;-74
2024/01/04 00:05:15;;;;;;;15.50;2.90;;;;;;;5.47;100.00;99723.97;5048679;28;20035;-74
2024/01/04 00:07:41;;;;;;;21.02;3.17;;;;;;;5.45;100.00;99728.94;5037851;28;20033;-74
2024/01/04 00:10:07;;;;;;;16.60;3.42;;;;;;;5.40;100.00;99728.94;5055540;28;20560;-74
2024/01/04 00:12:32;;;;;;;16.40;2.88;;;;;;;5.41;100.00;99732.53;5054047;28;20424;-74
2024/01/04 00:14:59;;;;;;;16.75;3.13;;;;;;;5.35;100.00;99742.75;5034505;28;20086;-75
2024/01/04 00:17:25;;;;;;;14.15;2.88;;;;;;;5.34;100.00;99735.56;5055561;28;20044;-74
2024/01/04 00:19:50;;;;;;;15.07;2.60;;;;;;;5.35;100.00;99748.25;5054990;28;20160;-74
2024/01/04 00:22:16;;;;;;;17.65;3.03;;;;;;;5.31;100.00;99745.22;5037849;28;20108;-74
2024/01/04 00:24:41;;;;;;;14.57;3.10;;;;;;;5.30;100.00;99737.25;5055218;28;20025;-74
2024/01/04 00:27:07;;;;;;;21.10;2.97;;;;;;;5.29;100.00;99743.84;5037463;28;20087;-75
2024/01/04 00:29:32;;;;;;;14.82;2.40;;;;;;;5.30;100.00;99745.50;5034034;28;20033;-74
2024/01/04 00:31:58;;;;;;;12.65;2.47;;;;;;;5.27;100.00;99746.88;5050358;28;20111;-74
2024/01/04 00:34:24;;;;;;;10.40;2.42;;;;;;;5.26;100.00;99744.38;5046044;28;20036;-74
2024/01/04 00:36:49;;;;;;;16.42;2.72;;;;;;;5.24;100.00;99749.38;5055515;28;20731;-74
2024/01/04 00:39:14;;;;;;;15.50;2.88;;;;;;;5.26;100.00;99752.66;5054753;28;20040;-75
2024/01/04 00:41:40;;;;;;;17.48;2.40;;;;;;;5.23;100.00;99745.78;5063072;28;20043;-74
2024/01/04 00:44:05;;;;;;;16.73;2.63;;;;;;;5.22;100.00;99757.06;5058312;28;20036;-74
2024/01/04 00:46:31;;;;;;;9.00;2.45;;;;;;;5.26;100.00;99760.91;5059370;28;20036;-74
2024/01/04 00:48:56;;;;;;;15.20;2.75;;;;;;;5.20;100.00;99767.53;5064660;28;20079;-74
2024/01/04 00:51:22;;;;;;;16.10;2.38;;;;;;;5.19;100.00;99763.13;5059183;28;20505;-74
2024/01/04 00:53:47;;;;;;;12.80;2.03;;;;;;;5.23;100.00;99761.47;5061972;28;20397;-74
2024/01/04 00:56:13;;;;;;;9.25;2.10;;;;;;;5.22;100.00;99768.91;5059190;28;20033;-75
2024/01/04 00:58:38;;;;;;;13.23;2.33;;;;;;;5.24;100.00;99771.41;5058552;28;20053;-74
2024/01/04 01:01:04;;;;;;;12.57;2.47;;;;;;;5.20;100.00;99762.03;5057794;28;20025;-74
2024/01/04 01:03:29;;;;;;;15.52;2.80;;;;;;;5.21;100.00;99764.50;5056017;28;20032;-74
2024/01/04 01:05:56;;;;;;;13.90;2.60;;;;;;;5.18;100.00;99769.72;5057940;28;20109;-74
2024/01/04 01:08:21;;;;;;;12.50;2.15;;;;;;;5.21;100.00;99763.66;5040870;28;20029;-74
2024/01/04 01:10:47;;;;;;;15.20;2.53;;;;;;;5.23;100.00;99766.97;5058992;28;20033;-74
2024/01/04 01:13:19;;;;;;;12.50;2.63;;;;;;;5.18;100.00;99776.06;5057539;28;20040;-74
2024/01/04 01:15:49;;;;;;;14.75;2.85;;;;;;;5.18;100.00;99776.06;5041862;28;20035;-74
2024/01/04 01:18:15;;;;;;;14.57;2.88;;;;;;;5.22;100.00;99787.34;5056830;28;20118;-74
2024/01/04 01:20:40;;;;;;;11.65;2.40;;;;;;;5.19;100.00;99790.66;5058551;28;20033;-74
2024/01/04 01:23:06;;;;;;;11.27;2.17;;;;;;;5.19;100.00;99787.91;5058512;28;20413;-74
2024/01/04 01:25:33;;;;;;;8.80;2.13;;;;;;;5.21;100.00;99785.69;5055683;28;20100;-74
2024/01/04 01:27:58;;;;;;;11.50;2.30;;;;;;;5.14;100.00;99781.28;5054096;28;20534;-75
2024/01/04 01:30:24;;;;;;;13.60;2.13;;;;;;;5.17;100.00;99784.59;5031447;28;20033;-74
2024/01/04 01:32:49;;;;;;;21.10;2.72;;;;;;;5.13;100.00;99789.84;5034181;28;20029;-75
2024/01/04 01:35:14;;;;;;;13.73;2.22;;;;;;;5.12;100.00;99789.00;5055797;28;20032;-74
2024/01/04 01:37:40;;;;;;;18.20;2.45;;;;;;;5.12;100.00;99777.97;5058081;28;20032;-74
2024/01/04 01:40:06;;;;;;;12.20;2.28;;;;;;;5.12;100.00;99786.25;5058500;28;20037;-74
2024/01/04 01:42:32;;;;;;;11.98;2.40;;;;;;;5.11;100.00;99787.34;5056703;28;20028;-74
2024/01/04 01:45:00;;;;;;;18.90;2.28;;;;;;;5.12;100.00;99789.00;5024055;28;20079;-74
2024/01/04 01:47:26;;;;;;;12.10;2.28;;;;;;;5.11;100.00;99783.78;5039792;28;20036;-74
2024/01/04 01:49:52;;;;;;;13.88;2.20;;;;;;;5.11;100.00;99781.03;5028894;28;20112;-74
2024/01/04 01:52:18;;;;;;;13.57;2.28;;;;;;;5.11;100.00;99772.78;5040051;28;20060;-74
2024/01/04 01:54:43;;;;;;;12.43;2.15;;;;;;;5.16;100.00;99786.53;5060181;28;20033;-75
2024/01/04 01:57:09;;;;;;;13.30;2.30;;;;;;;5.20;100.00;99786.78;5050604;28;20041;-75
2024/01/04 01:59:35;;;;;;;16.10;2.72;;;;;;;5.21;100.00;99785.69;5057801;28;20025;-74
2024/01/04 02:02:01;;;;;;;12.25;2.63;;;;;;;5.24;100.00;99791.50;5055243;28;20033;-74
2024/01/04 02:04:26;;;;;;;15.63;2.38;;;;;;;5.33;100.00;99778.81;5039946;28;20550;-74
2024/01/04 02:06:52;;;;;;;14.80;2.53;;;;;;;5.38;100.00;99798.06;5057681;28;20025;-74
2024/01/04 02:09:17;;;;;;;13.98;2.70;;;;;;;5.36;100.00;99799.47;5057715;28;20098;-75
2024/01/04 02:11:44;;;;;;;15.13;2.78;;;;;;;5.40;100.00;99805.22;5057678;28;20036;-74
2024/01/04 02:14:09;;;;;;;22.02;2.92;;;;;;;5.43;100.00;99797.22;5056300;28;20037;-74
2024/01/04 02:16:35;;;;;;;19.38;2.67;;;;;;;5.49;100.00;99798.91;5056434;28;20033;-74
2024/01/04 02:19:00;;;;;;;21.65;3.35;;;;;;;5.50;100.00;99805.22;5057494;28;20052;-74
2024/01/04 02:21:26;;;;;;;15.68;2.50;;;;;;;5.55;100.00;99807.97;5056221;28;20578;-74
2024/01/04 02:23:51;;;;;;;16.13;3.10;;;;;;;5.52;100.00;99803.84;5039892;28;20052;-74
2024/01/04 02:26:17;;;;;;;20.20;3.40;;;;;;;5.54;100.00;99812.66;5056059;28;20062;-75
2024/01/04 02:28:42;;;;;;;18.98;2.80;;;;;;;5.53;100.00;99808.25;5039545;28;20029;-75
2024/01/04 02:31:08;;;;;;;14.55;2.72;;;;;;;5.53;100.00;99816.50;5057280;28;20028;-74
2024/01/04 02:33:33;;;;;;;17.00;2.50;;;;;;;5.50;100.00;99803.28;5056021;28;20029;-74
2024/01/04 02:35:59;;;;;;;14.98;2.95;;;;;;;5.50;100.00;99810.72;5055773;28;20029;-74
2024/01/04 02:38:24;;;;;;;12.40;2.13;;;;;;;5.48;100.00;99802.72;5053649;28;20035;-74
2024/01/04 02:40:50;;;;;;;11.30;2.38;;;;;;;5.44;100.00;99800.84;5035051;28;20029;-74
2024/01/04 02:43:17;;;;;;;15.57;2.88;;;;;;;5.40;100.00;99811.56;5049138;28;20528;-75
2024/01/04 02:45:42;;;;;;;17.20;2.75;;;;;;;5.45;100.00;99799.72;5054837;28;20499;-75
2024/01/04 02:48:08;;;;;;;11.88;2.65;;;;;;;5.40;100.00;99795.03;5058458;28;20039;-74
2024/01/04 02:50:33;;;;;;;14.65;2.72;;;;;;;5.37;100.00;99790.09;5026272;28;20032;-74
2024/01/04 02:52:59;;;;;;;19.25;3.45;;;;;;;5.37;100.00;99792.84;5059617;28;20025;-74
2024/01/04 02:55:24;;;;;;;13.25;2.60;;;;;;;5.34;100.00;99799.72;5059480;28;20033;-74
2024/01/04 02:57:51;;;;;;;21.77;2.95;;;;;;;5.33;100.00;99800.00;5055260;28;20033;-74
2024/01/04 03:00:17;;;;;;;18.90;3.03;;;;;;;5.33;100.00;99798.06;5021396;28;20055;-75
2024/01/04 03:02:43;;;;;;;14.55;3.20;;;;;;;5.29;100.00;99790.63;5054206;28;20470;-74
2024/01/04 03:05:08;;;;;;;21.42;3.05;;;;;;;5.30;100.00;99792.31;5055603;28;20021;-74
2024/01/04 03:07:34;;;;;;;21.48;2.97;;;;;;;5.25;100.00;99784.88;5056702;28;20033;-74
2024/01/04 03:10:01;;;;;;;15.68;2.35;;;;;;;5.23;100.00;99789.00;5055443;28;20505;-74
2024/01/04 03:12:26;;;;;;;19.77;2.92;;;;;;;5.22;100.00;99787.34;5038570;28;20040;-74
2024/01/04 03:14:51;;;;;;;24.58;3.33;;;;;;;5.20;100.00;99784.88;5038505;28;20025;-74
2024/01/04 03:17:17;;;;;;;14.15;2.72;;;;;;;5.15;100.00;99777.47;5056307;28;20108;-74
2024/01/04 03:19:42;;;;;;;17.25;3.05;;;;;;;5.14;100.00;99797.81;5038093;28;20440;-75
2024/01/04 03:22:08;;;;;;;22.38;2.78;;;;;;;5.18;100.00;99789.00;5056246;28;20032;-74
2024/01/04 03:24:34;;;;;;;18.45;2.53;;;;;;;5.19;100.00;99788.72;5056082;28;20028;-74
2024/01/04 03:27:00;;;;;;;15.80;2.55;;;;;;;5.12;100.00;99789.00;5054818;28;20040;-74
2024/01/04 03:29:25;;;;;;;24.88;2.75;;;;;;;5.09;100.00;99784.03;5054592;28;20025;-74
2024/01/04 03:31:50;;;;;;;16.35;2.50;;;;;;;5.11;100.00;99787.34;5056128;28;20029;-74
2024/01/04 03:34:16;;;;;;;15.27;3.13;;;;;;;5.10;100.00;99780.22;5037102;28;20518;-74
2024/01/04 03:36:42;;;;;;;19.40;2.40;;;;;;;5.06;100.00;99778.28;5055039;28;20025;-74
2024/01/04 03:39:07;;;;;;;16.85;2.50;;;;;;;5.03;100.00;99785.16;5055977;28;20036;-74
2024/01/04 03:41:33;;;;;;;15.07;2.28;;;;;;;5.00;100.00;99782.94;5054692;28;20033;-74
2024/01/04 03:43:58;;;;;;;16.38;2.38;;;;;;;4.95;100.00;99780.19;5037795;28;20025;-74
2024/01/04 03:46:23;;;;;;;20.63;3.63;;;;;;;5.00;100.00;99782.13;5054706;28;20029;-74
2024/01/04 03:48:50;;;;;;;21.33;3.00;;;;;;;4.99;100.00;99784.06;5061206;28;20045;-74
2024/01/04 03:51:15;;;;;;;23.75;3.33;;;;;;;4.97;100.00;99780.75;5055950;28;20021;-74
2024/01/04 03:53:41;;;;;;;19.92;3.13;;;;;;;4.96;100.00;99784.63;5059875;28;20025;-75
2024/01/04 03:56:06;;;;;;;19.60;2.95;;;;;;;4.93;100.00;99779.63;5037777;28;20032;-74
2024/01/04 03:58:32;;;;;;;20.30;3.67;;;;;;;4.93;100.00;99785.13;5037340;28;20025;-74
2024/01/04 04:00:58;;;;;;;16.85;3.00;;;;;;;4.93;100.00;99790.63;5038199;28;20025;-74
2024/01/04 04:03:23;;;;;;;19.95;2.75;;;;;;;4.94;100.00;99781.31;5036790;28;20040;-74
2024/01/04 04:05:49;;;;;;;19.92;2.83;;;;;;;4.90;100.00;99785.69;5018089;28;20087;-74
2024/01/04 04:08:14;;;;;;;15.68;2.80;;;;;;;4.88;100.00;99779.66;5018066;28;20040;-74
2024/01/04 04:10:40;;;;;;;18.35;2.88;;;;;;;4.86;100.00;99774.41;5014263;28;20434;-74
2024/01/04 04:13:06;;;;;;;15.80;2.60;;;;;;;4.89;100.00;99779.38;5029114;28;20025;-74
2024/01/04 04:15:31;;;;;;;17.73;2.95;;;;;;;4.93;100.00;99779.63;5033094;28;20446;-74
2024/01/04 04:17:57;;;;;;;22.50;2.95;;;;;;;4.90;100.00;99780.19;5034097;28;20040;-74
2024/01/04 04:20:22;;;;;;;23.75;3.63;;;;;;;4.90;100.00;99772.78;5035350;28;20046;-74
2024/01/04 04:22:49;;;;;;;19.55;3.13;;;;;;;4.90;100.00;99763.66;5001591;28;20057;-74
2024/01/04 04:25:14;;;;;;;24.10;3.00;;;;;;;4.92;100.00;99772.50;5035602;28;20033;-74
2024/01/04 04:27:40;;;;;;;22.17;3.30;;;;;;;4.97;100.00;99775.25;5034999;28;20045;-74
2024/01/04 04:30:06;;;;;;;17.83;3.00;;;;;;;4.99;100.00;99766.72;5035528;28;20037;-74
2024/01/04 04:32:31;;;;;;;16.40;2.75;;;;;;;5.00;100.00;99763.69;5017764;28;20044;-74
2024/01/04 04:34:57;;;;;;;22.05;3.40;;;;;;;4.99;100.00;99767.53;5018879;28;20033;-74
2024/01/04 04:37:22;;;;;;;22.48;3.38;;;;;;;5.03;100.00;99762.31;5033866;28;20034;-74
2024/01/04 04:39:48;;;;;;;23.38;3.13;;;;;;;5.08;100.00;99765.06;5035354;28;20040;-74
2024/01/04 04:42:13;;;;;;;14.45;2.95;;;;;;;5.12;100.00;99761.47;5033687;28;20033;-74
2024/01/04 04:44:39;;;;;;;19.92;2.47;;;;;;;5.12;100.00;99761.47;5031468;28;20042;-74
2024/01/04 04:47:05;;;;;;;13.10;2.30;;;;;;;5.13;100.00;99757.63;5050836;28;20034;-74
2024/01/04 04:49:30;;;;;;;22.00;3.13;;;;;;;5.17;100.00;99751.56;5039941;28;20041;-74
2024/01/04 04:51:56;;;;;;;14.38;2.97;;;;;;;5.22;100.00;99743.31;5033832;28;20033;-74
2024/01/04 04:54:21;;;;;;;17.67;3.03;;;;;;;5.25;100.00;99742.75;5022671;28;20036;-74
2024/01/04 04:56:47;;;;;;;21.90;2.55;;;;;;;5.25;100.00;99740.00;5034980;28;20037;-74
2024/01/04 04:59:12;;;;;;;24.05;3.20;;;;;;;5.24;100.00;99741.94;5013940;28;20026;-74
2024/01/04 05:01:39;;;;;;;19.20;2.90;;;;;;;5.28;100.00;99744.94;5025930;28;20116;-74
2024/01/04 05:04:05;;;;;;;23.40;3.25;;;;;;;5.29;100.00;99738.31;5033646;28;20064;-74
2024/01/04 05:06:30;;;;;;;21.35;4.07;;;;;;;5.32;100.00;99724.00;5033779;28;20609;-74
2024/01/04 05:08:56;;;;;;;18.67;2.67;;;;;;;5.33;100.00;99732.00;5033725;28;20033;-74
2024/01/04 05:11:21;;;;;;;17.70;2.72;;;;;;;5.33;100.00;99723.75;5034935;28;20029;-74
2024/01/04 05:13:47;;;;;;;15.82;3.45;;;;;;;5.34;100.00;99721.81;5017007;28;20037;-74
2024/01/04 05:16:12;;;;;;;14.18;2.67;;;;;;;5.34;100.00;99721.81;5034893;28;20052;-74
2024/01/04 05:18:38;;;;;;;20.10;2.90;;;;;;;5.35;100.00;99723.47;5017023;28;20053;-74
2024/01/04 05:21:03;;;;;;;17.13;3.08;;;;;;;5.37;100.00;99724.81;5033477;28;20130;-74
2024/01/04 05:23:29;;;;;;;20.00;2.85;;;;;;;5.38;100.00;99734.75;5019266;28;20086;-75
2024/01/04 05:25:54;;;;;;;20.17;3.05;;;;;;;5.41;100.00;99730.59;5021155;28;20478;-75
2024/01/04 05:28:20;;;;;;;20.77;3.35;;;;;;;5.45;100.00;99717.09;5038137;28;20033;-74
2024/01/04 05:30:46;;;;;;;19.63;2.58;;;;;;;5.46;100.00;99716.84;5020782;28;20183;-74
2024/01/04 05:33:11;;;;;;;19.10;2.70;;;;;;;5.49;100.00;99718.19;5037188;28;20118;-74
2024/01/04 05:35:37;;;;;;;15.93;2.67;;;;;;;5.51;100.00;99705.78;5037336;28;20108;-74
2024/01/04 05:38:03;;;;;;;14.25;2.47;;;;;;;5.50;100.00;99704.13;5038393;28;20394;-74
2024/01/04 05:40:28;;;;;;;19.50;2.78;;;;;;;5.54;100.00;99699.75;5038163;28;20117;-74
2024/01/04 05:42:57;;;;;;;20.83;2.75;;;;;;;5.56;100.00;99705.78;5035499;28;20167;-74
2024/01/04 05:45:23;;;;;;;20.38;2.67;;;;;;;5.59;100.00;99699.69;5037990;28;20041;-74
2024/01/04 05:47:48;;;;;;;19.75;3.40;;;;;;;5.62;100.00;99703.81;5034735;28;20501;-74
2024/01/04 05:50:13;;;;;;;13.05;2.22;;;;;;;5.63;100.00;99704.63;5038242;28;20039;-74
2024/01/04 05:52:39;;;;;;;21.75;3.28;;;;;;;5.63;100.00;99701.88;5034884;28;20490;-74
2024/01/04 05:55:05;;;;;;;17.15;2.70;;;;;;;5.67;100.00;99705.75;5040778;28;20033;-74
2024/01/04 05:57:31;;;;;;;17.65;2.50;;;;;;;5.67;100.00;99700.22;5037644;28;20025;-74
2024/01/04 05:59:56;;;;;;;18.80;2.38;;;;;;;5.69;100.00;99693.34;5036920;28;20033;-74
2024/01/04 06:02:22;;;;;;;20.20;3.25;;;;;;;5.73;100.00;99694.41;5016574;28;20445;-74
2024/01/04 06:04:48;;;;;;;19.42;3.05;;;;;;;5.71;100.00;99695.78;5029339;28;20387;-74
2024/01/04 06:07:13;;;;;;;19.15;2.78;;;;;;;5.75;100.00;99705.97;5016820;28;20025;-74
2024/01/04 06:09:39;;;;;;;14.10;2.58;;;;;;;5.76;100.00;99699.34;5030158;28;20038;-74
2024/01/04 06:12:05;;;;;;;14.55;2.58;;;;;;;5.77;100.00;99690.00;5036488;28;20044;-74
2024/01/04 06:14:32;;;;;;;22.80;2.72;;;;;;;5.79;100.00;99697.97;5037677;28;20029;-74
2024/01/04 06:17:00;;;;;;;14.70;2.38;;;;;;;5.81;100.00;99695.75;5036370;28;20033;-74
2024/01/04 06:19:26;;;;;;;19.83;2.60;;;;;;;5.84;100.00;99686.94;5036341;28;20049;-74
2024/01/04 06:21:52;;;;;;;20.40;3.45;;;;;;;5.85;100.00;99688.59;5019950;28;20126;-74
2024/01/04 06:24:17;;;;;;;16.83;3.38;;;;;;;5.85;100.00;99688.59;5019639;28;20045;-75
2024/01/04 06:26:43;;;;;;;20.10;2.83;;;;;;;5.87;100.00;99686.34;5035963;28;20036;-74
2024/01/04 06:29:08;;;;;;;18.52;3.42;;;;;;;5.91;100.00;99679.19;5036176;28;20033;-74
2024/01/04 06:31:34;;;;;;;23.10;2.95;;;;;;;5.91;100.00;99683.88;5069364;28;20044;-74
2024/01/04 06:33:59;;;;;;;17.42;2.33;;;;;;;5.94;100.00;99691.59;5069027;28;20029;-74
2024/01/04 06:36:24;;;;;;;21.45;2.67;;;;;;;5.96;100.00;99684.72;5036045;28;20025;-74
2024/01/04 06:38:50;;;;;;;15.10;2.97;;;;;;;5.98;100.00;99684.41;5019374;28;20029;-74
2024/01/04 06:41:19;;;;;;;21.08;3.35;;;;;;;6.01;100.00;99681.91;5019549;28;20033;-74
2024/01/04 06:43:44;;;;;;;25.05;3.25;;;;;;;6.04;100.00;99689.63;5035503;28;20569;-74
2024/01/04 06:46:09;;;;;;;19.00;2.58;;;;;;;6.03;100.00;99693.47;5036106;28;20029;-74
2024/01/04 06:48:35;;;;;;;20.23;2.92;;;;;;;6.06;100.00;99694.03;5042370;28;20025;-74
2024/01/04 06:51:00;;;;;;;22.60;2.72;;;;;;;6.09;100.00;99693.44;5015971;28;20029;-74
2024/01/04 06:53:26;;;;;;;24.92;3.20;;;;;;;6.11;100.00;99697.56;5036645;28;20036;-74
2024/01/04 06:55:51;;;;;;;19.20;2.92;;;;;;;6.12;100.00;99701.16;5035472;28;20030;-74
2024/01/04 06:58:17;;;;;;;17.77;3.33;;;;;;;6.15;100.00;99692.31;5035388;28;20474;-74
2024/01/04 07:00:42;;;;;;;23.55;3.13;;;;;;;6.17;100.00;99687.34;5018990;28;20029;-74
2024/01/04 07:03:08;;;;;;;23.23;3.75;;;;;;;6.19;100.00;99687.88;5035240;28;20029;-74
2024/01/04 07:05:33;;;;;;;22.90;2.90;;;;;;;6.19;100.00;99676.88;5035366;28;20045;-74
2024/01/04 07:07:59;;;;;;;23.15;3.10;;;;;;;6.21;100.00;99671.88;5036748;28;20474;-74
2024/01/04 07:10:24;;;;;;;25.13;2.80;;;;;;;6.22;100.00;99666.06;5035196;28;20030;-74
2024/01/04 07:12:50;;;;;;;18.33;2.45;;;;;;;6.23;100.00;99666.91;5018994;28;20044;-74
2024/01/04 07:15:16;;;;;;;22.90;2.97;;;;;;;6.25;100.00;99659.16;5035386;28;20029;-74
2024/01/04 07:17:41;;;;;;;28.55;3.72;;;;;;;6.28;100.00;99666.03;5036398;28;20037;-74
2024/01/04 07:20:09;;;;;;;33.40;3.63;;;;;;;6.28;100.00;99655.84;5034962;28;20456;-74
2024/01/04 07:22:34;;;;;;;19.33;3.17;;;;;;;6.29;100.00;99651.94;5015570;28;20053;-74
2024/01/04 07:25:00;;;;;;;23.10;3.55;;;;;;;6.31;100.00;99643.41;5034210;28;20029;-74
2024/01/04 07:27:27;;;;;;;22.00;2.97;;;;;;;6.29;100.00;99640.94;5035096;28;20033;-74
2024/01/04 07:29:54;;;;;;;24.30;3.33;;;;;;;6.29;100.00;99627.13;5036105;28;20032;-74
2024/01/04 07:32:20;;;;;;;23.77;3.55;;;;;;;6.31;100.00;99613.91;5036341;28;20025;-74
2024/01/04 07:34:46;;;;;;;16.63;3.28;;;;;;;6.32;100.00;99612.78;5032750;28;20398;-74
2024/01/04 07:37:11;;;;;;;22.58;3.58;;;;;;;6.31;100.00;99607.56;5033004;28;20029;-74
2024/01/04 07:39:37;;;;;;;23.92;3.40;;;;;;;6.32;100.00;99607.25;5031782;28;20398;-74
2024/01/04 07:42:03;;;;;;;33.10;3.55;;;;;;;6.34;100.00;99612.50;5000485;28;20025;-74
2024/01/04 07:44:28;;;;;;;27.77;4.20;;;;;;;6.33;100.00;99625.47;5034892;28;20488;-74
2024/01/04 07:46:54;;;;;;;21.80;3.13;;;;;;;6.31;100.00;99627.69;5033451;28;20059;-74
2024/01/04 07:49:19;;;;;;;33.42;3.97;;;;;;;6.34;100.00;99631.81;5040075;28;20079;-74
2024/01/04 07:51:45;;;;;;;27.10;3.72;;;;;;;6.37;100.00;99632.03;5034641;28;20029;-74
2024/01/04 07:54:10;;;;;;;31.58;3.33;;;;;;;6.36;100.00;99630.41;5038867;28;20032;-74
2024/01/04 07:56:36;;;;;;;32.60;4.47;;;;;;;6.36;100.00;99630.41;5035705;28;20033;-74
2024/01/04 07:59:02;;;;;;;34.03;4.40;;;;;;;6.40;100.00;99636.97;5017771;28;20076;-74
2024/01/04 08:01:28;;;;;;;30.92;4.57;;;;;;;6.40;100.00;99628.69;5035629;28;20040;-74
2024/01/04 08:03:53;;;;;;;29.88;4.55;;;;;;;6.42;100.00;99623.72;5033008;28;20021;-74
2024/01/04 08:06:19;;;;;;;35.60;3.83;;;;;;;6.43;100.00;99625.38;5028321;28;20438;-74
2024/01/04 08:08:44;;;;;;;38.22;4.03;;;;;;;6.45;100.00;99631.44;5034421;28;20064;-75
2024/01/04 08:11:10;;;;;;;33.58;4.18;;;;;;;6.47;100.00;99633.91;5031912;28;20025;-74
2024/01/04 08:13:35;;;;;;;44.72;7.85;;;;;;;6.49;100.00;99612.34;5048573;28;20080;-74
2024/01/04 08:16:04;;;;;;;30.63;5.82;;;;;;;6.51;100.00;99615.66;5034172;28;20037;-74
2024/01/04 08:18:31;;;;;;;34.38;5.70;;;;;;;6.53;100.00;99610.69;5025737;28;20060;-74
2024/01/04 08:20:56;;;;;;;29.13;5.55;;;;;;;6.55;100.00;99615.94;5034061;28;20042;-74
2024/01/04 08:23:22;;;;;;;30.63;5.53;;;;;;;6.55;100.00;99616.75;5017639;28;20029;-74
2024/01/04 08:25:47;;;;;;;35.72;5.72;;;;;;;6.56;100.00;99603.75;5001732;28;20064;-74
2024/01/04 08:28:13;;;;;;;43.42;6.38;;;;;;;6.59;100.00;99595.72;5033730;28;20030;-74
2024/01/04 08:30:38;;;;;;;40.70;5.55;;;;;;;6.60;100.00;99589.13;5034842;28;20064;-74
2024/01/04 08:33:04;;;;;;;49.75;6.70;;;;;;;6.59;100.00;99581.13;5017463;28;20146;-74
2024/01/04 08:35:30;;;;;;;36.05;4.93;;;;;;;6.62;100.00;99599.84;5034395;28;20027;-75
2024/01/04 08:37:55;;;;;;;30.77;5.35;;;;;;;6.62;100.00;99599.84;5017499;28;20030;-74
2024/01/04 08:40:21;;;;;;;36.75;5.20;;;;;;;6.65;100.00;99593.75;5017722;28;20044;-74
2024/01/04 08:42:46;;;;;;;31.67;5.20;;;;;;;6.67;100.00;99591.53;5014036;28;20486;-74
2024/01/04 08:45:12;;;;;;;30.02;4.40;;;;;;;6.68;100.00;99599.50;5010701;28;20052;-74
2024/01/04 08:47:37;;;;;;;29.23;4.68;;;;;;;6.71;100.00;99590.66;5028840;28;20061;-75
2024/01/04 08:50:04;;;;;;;35.22;6.07;;;;;;;6.72;100.00;99591.47;5029091;28;20026;-74
2024/01/04 08:52:29;;;;;;;44.15;6.13;;;;;;;6.75;100.00;99592.84;5000563;28;20103;-74
2024/01/04 08:54:55;;;;;;;39.95;5.22;;;;;;;6.77;100.00;99594.19;5039759;28;20057;-74
2024/01/04 08:57:21;;;;;;;42.58;5.43;;;;;;;6.79;100.00;99589.19;5036044;28;20061;-74
2024/01/04 08:59:46;;;;;;;50.95;7.22;;;;;;;6.81;100.00;99575.91;5017944;28;20053;-74
2024/01/04 09:02:12;;;;;;;37.13;5.68;;;;;;;6.82;100.00;99580.31;5035491;28;20030;-74
2024/01/04 09:04:37;;;;;;;47.50;7.90;;;;;;;6.84;100.00;99580.03;5032971;28;20088;-74
2024/01/04 09:07:03;;;;;;;50.63;7.85;;;;;;;6.86;100.00;99581.41;5002876;28;20025;-74
2024/01/04 09:09:31;;;;;;;48.05;7.72;;;;;;;6.88;100.00;99576.41;5037715;28;20027;-74
2024/01/04 09:12:00;;;;;;;41.20;7.85;;;;;;;6.90;100.00;99571.41;5004681;28;20079;-75
2024/01/04 09:14:25;;;;;;;43.10;8.63;;;;;;;6.93;100.00;99572.75;5036500;28;20072;-74
2024/01/04 09:16:51;;;;;;;43.08;8.35;;;;;;;6.97;100.00;99565.56;5017561;28;20041;-74
2024/01/04 09:19:17;;;;;;;45.03;9.15;;;;;;;6.98;100.00;99566.38;5031152;28;20108;-74
2024/01/04 09:21:43;;;;;;;45.47;8.55;;;;;;;7.03;100.00;99558.84;5017472;28;20118;-74
2024/01/04 09:24:11;;;;;;;46.15;8.82;;;;;;;7.04;100.00;99559.66;5029858;28;20033;-74
2024/01/04 09:26:40;;;;;;;52.65;8.13;;;;;;;7.08;100.00;99552.47;5033007;28;20060;-74
2024/01/04 09:29:06;;;;;;;39.00;7.00;;;;;;;7.11;100.00;99544.41;5038813;28;20026;-74
2024/01/04 09:31:32;;;;;;;35.55;7.60;;;;;;;7.14;100.00;99541.03;5004279;28;20017;-75
2024/01/04 09:33:57;;;;;;;53.28;7.70;;;;;;;7.19;100.00;99551.22;5019210;28;20029;-74
2024/01/04 09:36:23;;;;;;;35.72;7.13;;;;;;;7.20;100.00;99539.03;5053402;28;20038;-74
2024/01/04 09:38:48;;;;;;;44.38;6.88;;;;;;;7.24;100.00;99536.50;5036824;28;20033;-75
2024/01/04 09:41:29;;;;;;;39.95;8.07;;;;;;;7.27;100.00;99505.53;5034428;28;20632;-74
2024/01/04 09:43:57;;;;;;;36.17;6.93;;;;;;;7.29;100.00;99509.63;5021670;28;20033;-74
2024/01/04 09:46:26;;;;;;;45.88;7.53;;;;;;;7.34;100.00;99506.81;5001576;28;20038;-74
2024/01/04 09:48:58;;;;;;;39.30;6.95;;;;;;;7.39;100.00;99512.28;5022431;28;20040;-74
2024/01/04 09:51:25;;;;;;;43.65;7.10;;;;;;;7.41;100.00;99498.19;5006293;28;20102;-74
2024/01/04 09:53:54;;;;;;;45.17;7.53;;;;;;;7.48;100.00;99511.59;5041655;28;20037;-74
2024/01/04 09:56:22;;;;;;;46.47;7.75;;;;;;;7.50;100.00;99503.84;5038067;28;20044;-74
2024/01/04 09:58:48;;;;;;;44.70;8.35;;;;;;;7.55;100.00;99501.84;5021017;28;20041;-74
2024/01/04 10:01:19;;;;;;;35.95;8.18;;;;;;;7.60;100.00;99498.16;5037727;28;20030;-74
2024/01/04 10:03:47;;;;;;;46.50;7.50;;;;;;;7.60;100.00;99490.72;5035810;28;20038;-74
2024/01/04 10:06:19;;;;;;;50.05;8.57;;;;;;;7.67;100.00;99487.56;5036724;28;20034;-74
2024/01/04 10:08:45;;;;;;;56.83;9.23;;;;;;;7.72;100.00;99481.97;5019860;28;20037;-74
2024/01/04 10:11:16;;;;;;;42.60;7.82;;;;;;;7.78;100.00;99478.00;5017784;28;20034;-74
2024/01/04 10:13:43;;;;;;;43.40;7.73;;;;;;;7.84;100.00;99476.78;5020343;28;20425;-74
2024/01/04 10:16:08;;;;;;;52.75;8.65;;;;;;;7.88;100.00;99485.28;5001458;28;20049;-74
2024/01/04 10:18:34;;;;;;;47.20;7.38;;;;;;;7.95;100.00;99476.63;5018865;28;20046;-74
2024/01/04 10:21:03;;;;;;;49.22;7.93;;;;;;;7.98;100.00;99479.59;5020902;28;20120;-74
2024/01/04 10:23:28;;;;;;;49.55;8.73;;;;;;;8.00;100.00;99471.81;5019816;28;20115;-74
2024/01/04 10:26:17;;;;;;;38.60;7.28;;;;;;;8.08;100.00;99473.09;5022367;28;20036;-74
2024/01/04 10:28:42;;;;;;;44.90;7.18;;;;;;;8.12;100.00;99457.50;5063351;28;20084;-74
2024/01/04 10:31:08;;;;;;;44.05;7.65;;;;;;;8.14;100.00;99449.75;5017862;28;20037;-74
2024/01/04 10:33:35;;;;;;;54.38;8.90;;;;;;;8.18;100.00;99434.16;5036866;28;20048;-74
2024/01/04 10:36:09;;;;;;;48.70;7.95;;;;;;;8.25;100.00;99419.97;5022156;28;20033;-75
2024/01/04 10:38:36;;;;;;;59.50;9.18;;;;;;;8.25;100.00;99415.25;5016317;28;20109;-74
2024/01/04 10:41:02;;;;;;;58.45;8.07;;;;;;;8.34;100.00;99414.53;5017163;28;20413;-74
2024/01/04 10:43:30;;;;;;;57.55;8.60;;;;;;;8.38;100.00;99419.13;5016840;28;20029;-74
2024/01/04 10:46:08;;;;;;;47.75;8.45;;;;;;;8.39;100.00;99409.75;5068743;28;20041;-75
2024/01/04 10:48:35;;;;;;;41.17;7.93;;;;;;;8.47;100.00;99411.81;5041615;28;20035;-75
2024/01/04 10:51:03;;;;;;;53.20;9.40;;;;;;;8.50;100.00;99410.38;5000353;28;20033;-74
2024/01/04 10:53:36;;;;;;;49.78;8.48;;;;;;;8.57;100.00;99405.25;5052311;28;20032;-74
2024/01/04 10:56:03;;;;;;;53.35;8.57;;;;;;;8.59;100.00;99391.13;5033322;28;20065;-74
2024/01/04 10:58:34;;;;;;;39.50;8.15;;;;;;;8.61;100.00;99403.50;5018853;28;20548;-74
2024/01/04 11:01:00;;;;;;;36.33;7.15;;;;;;;8.62;100.00;99385.78;5051080;28;23360;-75
2024/01/04 11:03:27;;;;;;;44.90;7.65;;;;;;;8.69;100.00;99371.50;5032340;28;20036;-75
2024/01/04 11:05:54;;;;;;;39.88;6.43;;;;;;;8.71;100.00;99360.94;5018346;28;20041;-74
2024/01/04 11:08:20;;;;;;;47.10;6.45;;;;;;;8.73;100.00;99353.16;5018044;28;20104;-74
2024/01/04 11:10:46;;;;;;;44.63;6.57;;;;;;;8.78;100.00;99341.16;4999741;28;20033;-74
2024/01/04 11:13:11;;;;;;;41.72;6.18;;;;;;;8.81;100.00;99343.31;5022460;28;20021;-74
2024/01/04 11:15:37;;;;;;;45.63;5.80;;;;;;;8.86;100.00;99335.72;5033858;28;20116;-75
2024/01/04 11:18:05;;;;;;;48.90;5.90;;;;;;;8.89;100.00;99329.56;5034946;28;20056;-75